Data for 06/14/2009

Time Sea-Level Adjusted Pressure Absolute Pressure Temperature Relative Humidity Dew Point   
(mb) (inHg) (mb) (inHg) (C) (F) (%) (C) (F)
00:05 1015 29.97 844 24.92 10 49.9 78 6.3 43.3
00:10 1015 29.97 844 24.92 10 50 77 6.2 43.2
00:15 1015 29.97 844 24.92 10 50.1 77 6.3 43.3
00:20 1015 29.97 844 24.92 10.1 50.1 76 6.1 42.9
00:25 1015 29.97 844 24.92 10.3 50.6 75 6.2 43.1
00:30 1015 29.97 844 24.92 10.4 50.7 74 6 42.7
00:35 1015 29.97 844 24.92 10.6 51.1 74 6.2 43.1
00:40 1015 29.97 844 24.92 10.6 51.1 73 6 42.8
00:45 1015 29.97 844 24.92 10.8 51.4 73 6.1 43
00:50 1015 29.97 844 24.92 10.7 51.2 74 6.3 43.3
00:55 1015 29.97 844 24.92 10.6 51.1 73 6 42.8
01:00 1015 29.97 844 24.92 10.7 51.2 73 6.2 43.1
01:05 1015 29.97 844 24.92 10.6 51.2 74 6.2 43.2
01:10 1015 29.97 844 24.92 10.7 51.3 73 6.2 43.1
01:15 1015 29.97 844 24.92 10.9 51.7 73 6.4 43.5
01:20 1015 29.97 844 24.92 10.9 51.6 74 6.5 43.7
01:25 1015 29.97 844 24.92 10.9 51.5 74 6.4 43.5
01:30 1015 29.97 844 24.92 10.6 51 76 6.5 43.8
01:35 1015 29.97 844 24.92 10.4 50.8 76 6.4 43.5
01:40 1015 29.97 844 24.92 10.6 51.1 75 6.4 43.5
01:45 1015 29.97 844 24.92 10.7 51.3 75 6.5 43.7
01:50 1015 29.97 844 24.92 10.6 51 76 6.6 43.9
01:55 1015 29.97 844 24.92 10.5 50.9 75 6.3 43.4
02:00 1015 29.97 844 24.92 10.8 51.4 74 6.4 43.6
02:05 1015 29.97 844 24.92 10.9 51.6 74 6.4 43.6
02:10 1015 29.97 844 24.92 10.9 51.7 74 6.5 43.7
02:15 1015 29.97 844 24.92 11 51.8 73 6.4 43.6
02:20 1015 29.97 844 24.92 11.2 52.1 73 6.5 43.6
02:25 1015 29.97 844 24.92 11.3 52.3 73 6.6 43.9
02:30 1015 29.97 844 24.92 11.2 52.2 75 7 44.5
02:35 1015 29.97 844 24.92 11 51.7 76 7 44.5
02:40 1015 29.97 844 24.92 10.9 51.5 77 7 44.6
02:45 1015 29.97 844 24.92 10.8 51.4 77 7 44.6
02:50 1015 29.97 844 24.92 10.8 51.5 76 6.9 44.4
02:55 1015 29.97 844 24.92 10.9 51.6 77 7 44.6
03:00 1015 29.97 844 24.92 11 51.8 76 7 44.6
03:05 1015 29.97 844 24.92 11.1 51.9 76 7.1 44.8
03:10 1015 29.97 844 24.92 10.9 51.6 78 7.2 45
03:15 1015 29.97 845 24.95 10.6 51 79 7.1 44.8
03:20 1015 29.97 845 24.95 10.6 51.1 78 7 44.6
03:25 1015 29.97 845 24.95 10.7 51.2 78 7.1 44.7
03:30 1015 29.97 845 24.95 10.6 51.1 78 7 44.7
03:35 1015 29.97 845 24.95 10.6 51 78 6.9 44.4
03:40 1015 29.97 845 24.95 10.7 51.2 77 6.9 44.4
03:45 1016 30 845 24.95 10.7 51.2 78 6.9 44.5
03:50 1016 30 845 24.95 10.6 51.1 77 6.8 44.2
03:55 1015 29.97 845 24.95 10.7 51.2 77 6.7 44.1
04:00 1015 29.97 845 24.95 10.9 51.6 75 6.7 44
04:05 1016 30 845 24.95 11.1 52 74 6.6 43.9
04:10 1016 30 845 24.95 11.3 52.4 72 6.5 43.7
04:15 1016 30 845 24.95 11.5 52.6 72 6.7 44.1
04:20 1015 29.97 845 24.95 11.3 52.3 74 6.9 44.4
04:25 1015 29.97 845 24.95 11.1 52 73 6.6 43.8
04:30 1015 29.97 845 24.95 11.1 52.1 76 7 44.6
04:35 1016 30 845 24.95 10.8 51.4 79 7.2 44.9
04:40 1015 29.97 845 24.95 10.4 50.8 79 7 44.7
04:45 1015 29.97 845 24.95 10.4 50.7 79 6.9 44.4
04:50 1016 30 845 24.95 10.6 51 79 7.1 44.7
04:55 1016 30 845 24.95 10.4 50.7 80 7.1 44.8
05:00 1016 30 845 24.95 10.5 50.8 78 6.8 44.3
05:05 1016 30 845 24.95 10.6 51.1 78 7 44.5
05:10 1016 30 845 24.95 10.6 51.1 78 6.9 44.4
05:15 1016 30 845 24.95 10.8 51.4 76 6.8 44.2
05:20 1016 30 845 24.95 10.9 51.6 76 6.9 44.5
05:25 1016 30 845 24.95 11 51.7 76 7 44.6
05:30 1016 30 845 24.95 10.9 51.7 76 6.9 44.5
05:35 1016 30 845 24.95 10.9 51.7 76 6.8 44.3
05:40 1016 30 845 24.95 11 51.9 75 6.8 44.3
05:45 1016 30 845 24.95 11.1 51.9 75 6.9 44.4
05:50 1016 30 845 24.95 11.1 52 75 6.8 44.3
05:55 1016 30 845 24.95 11.1 52 74 6.8 44.2
06:00 1016 30 845 24.95 11.1 52 75 6.9 44.3
06:05 1016 30 845 24.95 11.1 51.9 75 6.9 44.4
06:10 1016 30 845 24.95 11 51.9 75 6.8 44.3
06:15 1016 30 845 24.95 11 51.8 76 7 44.6
06:20 1016 30 845 24.95 11 51.8 77 7.1 44.8
06:25 1016 30 845 24.95 11.1 51.9 78 7.4 45.2
06:30 1016 30 845 24.95 11.1 51.9 78 7.4 45.3
06:35 1016 30 845 24.95 11.1 52 78 7.4 45.2
06:40 1016 30 845 24.95 11.1 52 75 6.8 44.2
06:45 1016 30 845 24.95 11.3 52.4 74 6.9 44.4
06:50 1016 30 845 24.95 11.5 52.6 73 6.9 44.4
06:55 1016 30 845 24.95 11.6 52.8 73 7 44.6
07:00 1016 30 845 24.95 11.7 53 72 6.7 44.1
07:05 1016 30 845 24.95 11.9 53.3 73 7.2 44.9
07:10 1016 30 845 24.95 11.9 53.4 73 7.2 45
07:15 1016 30 845 24.95 12 53.5 73 7.2 45
07:20 1015 29.97 845 24.95 12.2 53.9 70 7 44.5
07:25 1015 29.97 845 24.95 12.3 54.1 71 7.2 45
07:30 1015 29.97 845 24.95 12.4 54.3 70 7.2 44.9
07:35 1016 30 845 24.95 12.6 54.6 70 7.2 45
07:40 1016 30 845 24.95 12.6 54.7 71 7.4 45.4
07:45 1016 30 845 24.95 12.6 54.7 71 7.6 45.7
07:50 1016 30 845 24.95 12.6 54.6 71 7.5 45.5
07:55 1015 29.97 845 24.95 12.7 54.8 68 6.9 44.4
08:00 1015 29.97 845 24.95 13.2 55.8 65 6.8 44.2
08:05 1015 29.97 845 24.95 14.1 57.3 61 6.8 44.2
08:10 1015 29.97 845 24.95 14.6 58.3 60 6.9 44.5
08:15 1015 29.97 845 24.95 14.4 57.9 62 7.2 44.9
08:20 1015 29.97 845 24.95 14.2 57.5 61 6.7 44.1
08:25 1015 29.97 844 24.92 14.4 57.9 61 7 44.6
08:30 1015 29.97 844 24.92 14.8 58.6 62 7.6 45.6
08:35 1015 29.97 844 24.92 14.3 57.7 64 7.6 45.7
08:40 1015 29.97 844 24.92 14 57.1 65 7.6 45.7
08:45 1015 29.97 844 24.92 14.5 58.2 62 7.3 45.2
08:50 1015 29.97 845 24.95 15.2 59.4 59 7.2 45
08:55 1015 29.97 845 24.95 15 59 59 7 44.6
09:00 1015 29.97 845 24.95 15.7 60.2 56 7.1 44.8
09:05 1015 29.97 845 24.95 15.8 60.4 56 7.1 44.8
09:10 1015 29.97 845 24.95 16 60.7 56 7.2 44.9
09:15 1015 29.97 845 24.95 15.8 60.4 58 7.5 45.5
09:20 1015 29.97 845 24.95 16 60.7 56 7.4 45.3
09:25 1015 29.97 845 24.95 16 60.8 56 7.4 45.3
09:30 1015 29.97 844 24.92 16.2 61.1 56 7.5 45.5
09:35 1015 29.97 844 24.92 16.8 62.3 53 7.2 45
09:40 1015 29.97 844 24.92 16.6 61.9 54 7.4 45.3
09:45 1015 29.97 844 24.92 17.2 63 48 6.4 43.4
09:50 1015 29.97 844 24.92 17.4 63.3 49 6.7 44.1
09:55 1015 29.97 844 24.92 17.4 63.3 49 6.8 44.2
10:00 1015 29.97 844 24.92 17.8 64 50 7.3 45.2
10:05 1015 29.97 844 24.92 17.5 63.6 50 7.1 44.7
10:10 1015 29.97 844 24.92 18.4 65.2 48 7.5 45.4
10:15 1015 29.97 844 24.92 17.9 64.1 51 7.7 45.9
10:20 1015 29.97 844 24.92 17.9 64.2 49 7.1 44.7
10:25 1015 29.97 844 24.92 18.9 66 46 7.2 45
10:30 1015 29.97 844 24.92 19.5 67.2 42 6.6 43.8
10:35 1015 29.97 844 24.92 18.5 65.3 48 7.5 45.5
10:40 1015 29.97 844 24.92 18.7 65.7 47 7.4 45.4
10:45 1015 29.97 844 24.92 19.6 67.2 43 6.7 44
10:50 1015 29.97 844 24.92 19.4 67 44 6.9 44.4
10:55 1015 29.97 844 24.92 19.1 66.4 47 7.6 45.8
11:00 1015 29.97 844 24.92 18.7 65.6 47 7.3 45.2
11:05 1015 29.97 844 24.92 18 64.4 49 7.2 45
11:10 1015 29.97 844 24.92 18.1 64.5 50 7.5 45.5
11:15 1015 29.97 844 24.92 17.9 64.2 53 8.2 46.7
11:20 1015 29.97 844 24.92 17.7 63.9 52 7.9 46.2
11:25 1015 29.97 844 24.92 17.9 64.3 52 8.1 46.7
11:30 1015 29.97 844 24.92 18.3 64.9 53 8.6 47.4
11:35 1015 29.97 844 24.92 18 64.4 54 8.7 47.7
11:40 1015 29.97 844 24.92 17 62.6 57 8.6 47.5
11:45 1015 29.97 844 24.92 17.5 63.5 53 8 46.3
11:50 1014 29.94 844 24.92 18.2 64.7 51 8.1 46.6
11:55 1014 29.94 844 24.92 18.5 65.3 52 8.5 47.2
12:00 1014 29.94 844 24.92 17.8 64.1 51 7.7 45.9
12:05 1014 29.94 844 24.92 18.9 66 47 7.5 45.5
12:10 1014 29.94 844 24.92 20.1 68.2 42 7 44.5
12:15 1014 29.94 844 24.92 20.8 69.5 42 7.7 45.9
12:20 1014 29.94 844 24.92 20.7 69.2 46 8.7 47.6
12:25 1014 29.94 843 24.89 20.4 68.7 46 8.7 47.6
12:30 1014 29.94 843 24.89 18.8 65.8 50 8.4 47.1
12:35 1014 29.94 843 24.89 19 66.2 48 7.9 46.3
12:40 1014 29.94 843 24.89 18.6 65.5 48 7.5 45.5
12:45 1014 29.94 843 24.89 19.1 66.4 46 7.4 45.3
12:50 1014 29.94 843 24.89 19.5 67 44 7.1 44.8
12:55 1014 29.94 843 24.89 20 68 44 7.4 45.3
13:00 1014 29.94 843 24.89 18.4 65.1 46 6.6 43.9
13:05 1014 29.94 843 24.89 18.6 65.5 45 6.4 43.6
13:10 1014 29.94 843 24.89 19.2 66.6 44 6.8 44.2
13:15 1014 29.94 843 24.89 20.1 68.1 41 6.4 43.5
13:20 1014 29.94 843 24.89 19.4 66.9 45 7.3 45.1
13:25 1014 29.94 843 24.89 18.8 65.9 44 6.3 43.3
13:30 1014 29.94 843 24.89 19 66.2 44 6.5 43.7
13:35 1014 29.94 843 24.89 19.1 66.4 43 6.4 43.5
13:40 1014 29.94 843 24.89 19.1 66.3 45 6.9 44.4
13:45 1014 29.94 843 24.89 16.5 61.8 49 6 42.8
13:50 1014 29.94 843 24.89 14.2 57.5 53 4.9 40.8
13:55 1014 29.94 843 24.89 13.8 56.8 55 5.1 41.1
14:00 1014 29.94 843 24.89 13.9 57 57 5.5 42
14:05 1014 29.94 843 24.89 13.6 56.5 61 6.3 43.3
14:10 1014 29.94 843 24.89 13.3 55.9 65 6.9 44.4
14:15 1014 29.94 843 24.89 13.2 55.7 69 7.7 45.8
14:20 1014 29.94 843 24.89 13 55.3 69 7.4 45.3
14:25 1014 29.94 843 24.89 12.8 55 69 7.3 45.1
14:30 1014 29.94 843 24.89 12.6 54.7 72 7.7 45.8
14:35 1014 29.94 843 24.89 12.7 54.9 68 7.1 44.7
14:40 1014 29.94 843 24.89 13.1 55.6 66 7 44.6
14:45 1014 29.94 843 24.89 13.3 56 67 7.5 45.5
14:50 1014 29.94 843 24.89 13.4 56.1 68 7.6 45.7
14:55 1014 29.94 843 24.89 13.5 56.3 70 8.2 46.7
15:00 1014 29.94 843 24.89 14 57.1 70 8.6 47.5
15:05 1014 29.94 843 24.89 14.3 57.7 67 8.3 47
15:10 1014 29.94 843 24.89 14.9 58.9 68 9.2 48.6
15:15 1014 29.94 843 24.89 15.4 59.7 64 8.7 47.6
15:20 1014 29.94 843 24.89 15.8 60.5 62 8.7 47.7
15:25 1014 29.94 843 24.89 16.4 61.6 62 9.2 48.6
15:30 1014 29.94 843 24.89 16.9 62.4 58 8.7 47.7
15:35 1013 29.91 843 24.89 17.3 63.1 57 8.7 47.7
15:40 1013 29.91 843 24.89 17.5 63.4 57 8.9 48
15:45 1013 29.91 843 24.89 17.5 63.5 53 8 46.5
15:50 1013 29.91 843 24.89 18.2 64.8 49 7.4 45.3
15:55 1013 29.91 843 24.89 18.6 65.4 47 7.3 45.1
16:00 1014 29.94 843 24.89 18.7 65.7 47 7.4 45.3
16:05 1013 29.91 843 24.89 18.5 65.4 45 6.5 43.7
16:10 1013 29.91 843 24.89 19.1 66.4 46 7.2 45
16:15 1013 29.91 843 24.89 18.8 65.9 38 4.2 39.6
16:20 1013 29.91 843 24.89 19.5 67.1 38 4.9 40.8
16:25 1013 29.91 843 24.89 20.4 68.7 41 7 44.5
16:30 1013 29.91 843 24.89 20 68 43 7.1 44.8
16:35 1013 29.91 842 24.86 19.5 67.1 41 6.2 43.1
16:40 1013 29.91 842 24.86 19.5 67.1 39 5.4 41.8
16:45 1013 29.91 842 24.86 19.8 67.7 40 6.1 43
16:50 1013 29.91 842 24.86 20 68 41 6.4 43.5
16:55 1013 29.91 842 24.86 20.7 69.2 38 6 42.9
17:00 1013 29.91 842 24.86 20.2 68.4 38 5.8 42.4
17:05 1013 29.91 842 24.86 20.6 69.1 38 5.8 42.4
17:10 1013 29.91 842 24.86 19.9 67.7 39 5.6 42.2
17:15 1013 29.91 842 24.86 19.8 67.6 38 5.3 41.6
17:20 1013 29.91 842 24.86 19.4 66.9 39 5.2 41.3
17:25 1013 29.91 842 24.86 19.9 67.9 35 4 39.3
17:30 1013 29.91 842 24.86 21.2 70.2 34 5 40.9
17:35 1013 29.91 842 24.86 20.5 68.9 38 5.8 42.5
17:40 1013 29.91 842 24.86 20.6 69 38 5.9 42.6
17:45 1013 29.91 842 24.86 20.9 69.6 38 6 42.8
17:50 1013 29.91 842 24.86 21.2 70.1 36 5.8 42.4
17:55 1013 29.91 842 24.86 20.6 69.1 35 4.9 40.8
18:00 1013 29.91 842 24.86 20.2 68.4 36 4.7 40.5
18:05 1013 29.91 842 24.86 20.1 68.1 37 5.2 41.4
18:10 1013 29.91 842 24.86 20.7 69.3 34 4.3 39.7
18:15 1013 29.91 842 24.86 20.8 69.4 33 4.2 39.5
18:20 1013 29.91 842 24.86 21.2 70.2 32 4.2 39.5
18:25 1013 29.91 842 24.86 21 69.9 34 4.6 40.3
18:30 1013 29.91 842 24.86 20.3 68.5 37 5.2 41.4
18:35 1013 29.91 842 24.86 20.2 68.4 36 5 40.9
18:40 1013 29.91 842 24.86 20.3 68.5 37 5.3 41.6
18:45 1013 29.91 842 24.86 20.1 68.2 38 5.7 42.2
18:50 1013 29.91 842 24.86 20 68 40 6 42.8
18:55 1013 29.91 842 24.86 19.2 66.6 44 6.9 44.5
19:00 1013 29.91 842 24.86 18.3 64.9 48 7.1 44.8
19:05 1013 29.91 842 24.86 17.8 64 49 6.9 44.5
19:10 1013 29.91 842 24.86 17.4 63.3 51 7.1 44.9
19:15 1013 29.91 842 24.86 17.1 62.8 54 7.7 45.9
19:20 1013 29.91 842 24.86 16.3 61.4 61 8.8 47.9
19:25 1013 29.91 842 24.86 15.5 59.9 65 9 48.2
19:30 1013 29.91 843 24.89 15.1 59.1 68 9.2 48.5
19:35 1013 29.91 843 24.89 14.2 57.6 77 10.2 50.4
19:40 1013 29.91 843 24.89 13.6 56.4 78 9.8 49.7
19:45 1014 29.94 843 24.89 13.6 56.5 77 9.7 49.5
19:50 1014 29.94 843 24.89 13.7 56.6 78 10 50
19:55 1014 29.94 843 24.89 13.7 56.7 78 10.1 50.1
20:00 1014 29.94 843 24.89 13.6 56.4 77 9.7 49.5
20:05 1014 29.94 843 24.89 13.4 56.1 78 9.7 49.5
20:10 1014 29.94 843 24.89 13.3 56 79 9.8 49.7
20:15 1014 29.94 843 24.89 13.5 56.2 79 10 49.9
20:20 1014 29.94 843 24.89 13.6 56.6 80 10.3 50.5
20:25 1014 29.94 843 24.89 13.5 56.3 81 10.3 50.6
20:30 1014 29.94 844 24.92 13 55.5 86 10.8 51.4
20:35 1014 29.94 843 24.89 12.7 54.8 86 10.5 50.9
20:40 1014 29.94 843 24.89 12.4 54.3 87 10.4 50.6
20:45 1014 29.94 843 24.89 12.2 53.9 89 10.5 50.9
20:50 1014 29.94 843 24.89 12 53.6 90 10.4 50.7
20:55 1014 29.94 843 24.89 11.9 53.4 89 10.2 50.3
21:00 1014 29.94 843 24.89 11.8 53.3 88 10 50
21:05 1014 29.94 843 24.89 11.7 53.1 88 9.8 49.7
21:10 1014 29.94 843 24.89 11.7 53.1 86 9.5 49.1
21:15 1014 29.94 843 24.89 11.8 53.2 85 9.4 48.9
21:20 1014 29.94 843 24.89 11.9 53.3 84 9.3 48.7
21:25 1014 29.94 843 24.89 11.9 53.3 84 9.3 48.8
21:30 1014 29.94 843 24.89 11.9 53.3 83 9 48.3
21:35 1014 29.94 843 24.89 11.9 53.4 82 8.9 48.1
21:40 1014 29.94 843 24.89 11.9 53.4 82 8.9 48
21:45 1014 29.94 843 24.89 11.7 53.1 82 8.8 47.9
21:50 1014 29.94 843 24.89 11.6 52.9 84 9 48.2
21:55 1014 29.94 843 24.89 11.5 52.7 84 9 48.1
22:00 1014 29.94 843 24.89 11.5 52.7 84 8.9 48
22:05 1014 29.94 843 24.89 11.5 52.7 84 8.8 47.9
22:10 1014 29.94 843 24.89 11.6 52.8 83 8.8 47.9
22:15 1014 29.94 843 24.89 11.6 52.9 82 8.7 47.6
22:20 1014 29.94 843 24.89 11.6 52.9 83 8.8 47.8
22:25 1014 29.94 843 24.89 11.7 53 82 8.8 47.8
22:30 1014 29.94 843 24.89 11.7 53 82 8.7 47.7
22:35 1014 29.94 843 24.89 11.7 53 81 8.6 47.6
22:40 1014 29.94 843 24.89 11.7 53.1 81 8.6 47.6
22:45 1014 29.94 843 24.89 11.7 53 82 8.7 47.6
22:50 1014 29.94 843 24.89 11.6 52.8 83 8.7 47.7
22:55 1014 29.94 843 24.89 11.5 52.6 83 8.7 47.6
23:00 1014 29.94 843 24.89 11.4 52.6 83 8.7 47.6
23:05 1014 29.94 843 24.89 11.4 52.5 82 8.5 47.3
23:10 1014 29.94 843 24.89 11.4 52.6 84 8.7 47.7
23:15 1014 29.94 843 24.89 11.3 52.4 83 8.6 47.4
23:20 1014 29.94 843 24.89 11.3 52.3 85 8.8 47.8
23:25 1014 29.94 843 24.89 11.2 52.2 85 8.9 47.9
23:30 1014 29.94 843 24.89 11.2 52.1 86 8.8 47.9
23:35 1014 29.94 843 24.89 11.2 52.1 85 8.8 47.9
23:40 1014 29.94 843 24.89 11.1 52 86 8.8 47.8
23:45 1014 29.94 843 24.89 11 51.9 86 8.8 47.9
23:50 1014 29.94 843 24.89 11 51.8 87 8.9 48
23:55 1014 29.94 843 24.89 11 51.8 86 8.7 47.7
24:00 1014 29.94 843 24.89 11 51.8 85 8.6 47.5